Time;durP1;ratioP1;P1;durP2;ratioP2;P2;SDS_P1;SDS_P2;PMS_P1;PMS_P2;Temp;Humidity;BMP_temperature;BMP_pressure;BME280_temperature;BME280_humidity;BME280_pressure;Samples;Min_cycle;Max_cycle;Signal;HPM_P1;HPM_P2
2021/03/25 00:01:50;;;;;;;64.50;41.20;;;;;;;2.22;91.77;97192.38;1718299;82;21196;-80
2021/03/25 00:04:18;;;;;;;59.55;36.55;;;;;;;2.23;91.71;97192.67;1717147;81;21253;-80
2021/03/25 00:06:51;;;;;;;58.78;35.30;;;;;;;2.21;91.66;97184.23;1735114;82;21338;-80
2021/03/25 00:09:29;;;;;;;59.15;37.85;;;;;;;2.20;91.62;97190.48;1731721;82;21289;-80
2021/03/25 00:11:57;;;;;;;69.82;41.25;;;;;;;2.19;91.60;97187.57;1721276;81;21122;-80
2021/03/25 00:14:25;;;;;;;64.85;36.88;;;;;;;2.19;91.59;97189.38;1734961;81;21149;-80
2021/03/25 00:16:52;;;;;;;58.87;36.35;;;;;;;2.20;91.60;97187.86;1732538;81;21273;-80
2021/03/25 00:19:20;;;;;;;60.75;36.90;;;;;;;2.24;91.60;97189.55;1732086;82;21331;-80
2021/03/25 00:21:48;;;;;;;60.88;38.13;;;;;;;2.23;91.55;97186.13;1724509;83;21240;-80
2021/03/25 00:24:19;;;;;;;56.68;36.68;;;;;;;2.21;91.53;97182.92;1728202;82;21087;-80
2021/03/25 00:26:47;;;;;;;68.90;41.15;;;;;;;2.21;91.49;97179.00;1724689;83;21467;-80
2021/03/25 00:29:17;;;;;;;62.83;38.38;;;;;;;2.21;91.45;97179.00;1736012;81;21148;-80
2021/03/25 00:31:46;;;;;;;73.25;44.27;;;;;;;2.21;91.47;97176.38;1717802;83;21257;-80
2021/03/25 00:34:14;;;;;;;68.07;42.00;;;;;;;2.21;91.45;97184.23;1720030;83;21269;-80
2021/03/25 00:36:41;;;;;;;72.80;45.38;;;;;;;2.20;91.46;97178.70;1719666;81;21226;-80
2021/03/25 00:39:12;;;;;;;74.47;45.15;;;;;;;2.21;91.41;97176.38;1727895;83;21136;-80
2021/03/25 00:41:40;;;;;;;72.60;43.28;;;;;;;2.20;91.44;97180.02;1731477;81;21702;-80
2021/03/25 00:44:13;;;;;;;73.97;45.63;;;;;;;2.18;91.49;97175.50;1733825;81;21075;-80
2021/03/25 00:46:42;;;;;;;80.85;47.43;;;;;;;2.16;91.55;97168.89;1727212;83;21099;-80
2021/03/25 00:49:10;;;;;;;73.37;43.52;;;;;;;2.12;91.49;97171.13;1731597;81;21092;-80
2021/03/25 00:51:37;;;;;;;74.45;46.88;;;;;;;2.12;91.62;97174.25;1726320;81;21135;-80
2021/03/25 00:54:05;;;;;;;80.55;45.90;;;;;;;2.07;91.60;97174.35;1723980;81;21506;-80
2021/03/25 00:56:34;;;;;;;76.02;46.88;;;;;;;2.07;91.60;97170.94;1715571;81;21644;-80
2021/03/25 00:59:01;;;;;;;83.95;51.63;;;;;;;2.06;91.62;97166.72;1727904;83;21079;-80
2021/03/25 01:01:28;;;;;;;78.83;49.40;;;;;;;2.03;91.57;97163.23;1732418;81;21134;-80
2021/03/25 01:03:55;;;;;;;74.53;46.50;;;;;;;2.04;91.66;97162.22;1716643;82;21609;-80
2021/03/25 01:06:23;;;;;;;67.00;43.05;;;;;;;2.02;91.80;97165.04;1731745;83;21106;-80
2021/03/25 01:08:51;;;;;;;75.97;45.73;;;;;;;1.99;91.83;97163.36;1724490;81;21122;-80
2021/03/25 01:11:23;;;;;;;75.72;45.83;;;;;;;1.98;91.88;97160.45;1723864;81;21455;-80
2021/03/25 01:13:58;;;;;;;77.22;45.52;;;;;;;1.95;91.95;97155.62;1721322;83;21079;-80
2021/03/25 01:16:36;;;;;;;73.28;42.58;;;;;;;1.93;92.07;97152.41;1725857;83;21475;-80
2021/03/25 01:19:18;;;;;;;66.42;42.20;;;;;;;1.90;92.21;97152.84;1717054;81;21222;-80
2021/03/25 01:21:46;;;;;;;76.17;42.78;;;;;;;1.87;92.36;97148.84;1737260;81;21487;-80
2021/03/25 01:24:13;;;;;;;74.45;45.85;;;;;;;1.85;92.55;97151.37;1728879;83;21114;-80
2021/03/25 01:26:41;;;;;;;74.85;45.55;;;;;;;1.79;92.65;97143.84;1731585;81;21516;-80
2021/03/25 01:29:08;;;;;;;63.63;40.88;;;;;;;1.75;92.84;97147.39;1734908;81;21136;-80
2021/03/25 01:31:36;;;;;;;68.05;42.67;;;;;;;1.72;92.94;97142.58;1731674;83;21087;-80
2021/03/25 01:34:06;;;;;;;65.30;38.30;;;;;;;1.75;92.71;97145.28;1723719;83;21172;-80
2021/03/25 01:36:33;;;;;;;;;;;;;;;1.75;92.68;97139.55;1731278;81;21141;-80
2021/03/25 01:39:00;;;;;;;57.55;36.60;;;;;;;1.78;92.59;97147.47;1717901;83;20132;-80
2021/03/25 01:41:32;;;;;;;70.42;42.43;;;;;;;1.81;92.52;97144.94;1729187;81;21146;-80
2021/03/25 01:43:58;;;;;;;64.95;37.58;;;;;;;1.81;92.45;97145.73;1731820;83;21590;-80
2021/03/25 01:46:39;;;;;;;69.15;40.85;;;;;;;1.85;92.37;97144.83;1724062;82;21504;-80
2021/03/25 01:49:15;;;;;;;68.92;39.83;;;;;;;1.87;92.28;97135.77;1720477;83;21117;-80
2021/03/25 01:52:22;;;;;;;71.85;40.78;;;;;;;1.89;92.17;97130.33;1716287;82;21092;-80
2021/03/25 01:54:57;;;;;;;63.13;37.50;;;;;;;1.88;92.12;97133.45;1708114;81;21172;-79
2021/03/25 01:57:59;;;;;;;74.77;42.73;;;;;;;1.88;92.07;97132.14;1734091;81;21115;-78
2021/03/25 02:00:55;;;;;;;60.75;36.98;;;;;;;1.90;92.03;97134.03;1714321;83;21504;-80
2021/03/25 02:04:00;;;;;;;65.55;39.13;;;;;;;1.91;91.99;97131.71;1724709;83;21467;-79
2021/03/25 02:06:56;;;;;;;69.32;39.83;;;;;;;1.85;91.89;97132.56;1719354;83;21517;-80
2021/03/25 02:09:56;;;;;;;64.77;40.08;;;;;;;1.82;91.86;97126.93;1711668;83;21115;-80
2021/03/25 02:12:35;;;;;;;44.15;28.55;;;;;;;1.76;91.92;97132.50;1718418;81;21178;-79
2021/03/25 02:15:13;;;;;;;58.13;35.03;;;;;;;1.71;92.00;97123.19;1715547;83;21110;-79
2021/03/25 02:17:51;;;;;;;61.60;36.75;;;;;;;1.68;92.16;97121.77;1731222;83;21517;-79
2021/03/25 02:20:54;;;;;;;59.93;35.92;;;;;;;1.62;92.24;97127.84;1723039;81;21162;-79
2021/03/25 02:23:49;;;;;;;59.33;36.13;;;;;;;1.57;92.37;97122.45;1729730;83;21095;-79
2021/03/25 02:26:30;;;;;;;54.48;33.40;;;;;;;1.57;92.56;97129.49;1735887;81;21474;-80
2021/03/25 02:29:11;;;;;;;54.95;31.62;;;;;;;1.56;92.64;97128.69;1726420;81;21118;-80
2021/03/25 02:31:43;;;;;;;59.65;36.73;;;;;;;1.54;92.81;97121.54;1706778;83;21487;-79
2021/03/25 02:34:18;;;;;;;57.38;33.15;;;;;;;1.53;92.86;97121.24;1723072;83;21545;-79
2021/03/25 02:36:56;;;;;;;62.55;36.42;;;;;;;1.51;92.94;97121.96;1726298;81;21584;-79
2021/03/25 02:39:49;;;;;;;57.83;35.90;;;;;;;1.48;92.96;97126.30;1720575;83;21440;-80
2021/03/25 02:42:19;;;;;;;62.88;37.35;;;;;;;1.47;92.98;97124.70;1716423;81;21137;-80
2021/03/25 02:44:54;;;;;;;61.35;37.28;;;;;;;1.45;93.14;97121.50;1728734;83;21114;-80
2021/03/25 02:47:23;;;;;;;59.77;37.45;;;;;;;1.44;93.21;97122.51;1728090;83;21506;-80
2021/03/25 02:50:05;;;;;;;66.15;39.42;;;;;;;1.42;93.22;97112.27;1727608;83;21115;-80
2021/03/25 02:52:40;;;;;;;71.35;42.70;;;;;;;1.45;93.23;97116.27;1723017;83;21159;-80
2021/03/25 02:55:11;;;;;;;67.60;41.25;;;;;;;1.46;93.16;97122.59;1723504;82;21131;-80
2021/03/25 02:57:50;;;;;;;64.47;38.90;;;;;;;1.46;93.10;97113.95;1731716;82;21107;-80
2021/03/25 03:00:29;;;;;;;67.92;42.03;;;;;;;1.45;93.12;97117.07;1721044;81;21110;-79
2021/03/25 03:03:12;;;;;;;65.67;38.88;;;;;;;1.46;93.03;97115.27;1725305;81;21127;-79
2021/03/25 03:05:43;;;;;;;65.95;39.60;;;;;;;1.49;92.99;97116.14;1722004;83;21156;-79
2021/03/25 03:08:24;;;;;;;60.65;37.42;;;;;;;1.48;92.97;97116.66;1726167;81;21115;-79
2021/03/25 03:11:05;;;;;;;71.72;39.75;;;;;;;1.48;92.99;97119.27;1714906;83;21136;-79
2021/03/25 03:13:37;;;;;;;58.33;36.70;;;;;;;1.50;93.04;97122.97;1715070;83;21229;-80
2021/03/25 03:16:22;;;;;;;61.37;36.55;;;;;;;1.50;93.08;97121.66;1715926;81;21147;-80
2021/03/25 03:19:07;;;;;;;61.45;37.33;;;;;;;1.51;93.04;97127.19;1745942;81;21280;-80
2021/03/25 03:21:42;;;;;;;60.95;35.95;;;;;;;1.53;93.00;97125.67;1736327;81;21130;-79
2021/03/25 03:24:10;;;;;;;51.33;34.00;;;;;;;1.55;92.92;97119.25;1728666;83;21481;-80
2021/03/25 03:26:48;;;;;;;62.93;36.75;;;;;;;1.56;92.85;97114.83;1727508;82;21494;-80
2021/03/25 03:29:18;;;;;;;68.10;39.18;;;;;;;1.56;92.75;97119.55;1741440;81;21127;-80
2021/03/25 03:31:53;;;;;;;59.27;36.65;;;;;;;1.57;92.73;97123.76;1719680;83;21186;-79
2021/03/25 03:34:31;;;;;;;61.30;35.48;;;;;;;1.59;92.67;97122.23;1714758;83;21103;-79
2021/03/25 03:37:02;;;;;;;62.50;39.30;;;;;;;1.60;92.66;97123.34;1732971;81;21153;-79
2021/03/25 03:39:31;;;;;;;61.98;37.50;;;;;;;1.61;92.62;97126.24;1740190;81;21141;-79
2021/03/25 03:44:49;;;;;;;70.17;46.10;;;;;;;1.68;92.51;97123.08;1855802;76;28164;-78
2021/03/25 03:47:20;;;;;;;57.13;35.95;;;;;;;1.70;92.39;97126.31;1820801;77;21092;-78
2021/03/25 03:49:55;;;;;;;59.05;37.48;;;;;;;1.71;92.31;97123.19;1826796;77;21160;-78
2021/03/25 03:52:30;;;;;;;63.28;38.98;;;;;;;1.70;92.25;97123.70;1840134;77;21133;-78
2021/03/25 03:55:00;;;;;;;62.65;36.00;;;;;;;1.68;92.22;97121.77;1847139;77;21090;-79
2021/03/25 03:58:14;;;;;;;64.53;35.38;;;;;;;1.68;92.20;97129.61;1777935;79;21507;-79
2021/03/25 04:00:58;;;;;;;59.45;35.40;;;;;;;1.66;92.17;97118.56;1784072;80;21883;-80
2021/03/25 04:03:45;;;;;;;63.95;37.28;;;;;;;1.67;92.21;97126.70;1795615;80;21100;-80
2021/03/25 04:06:20;;;;;;;56.85;32.58;;;;;;;1.67;92.18;97124.09;1787135;78;21476;-80
2021/03/25 04:09:05;;;;;;;51.73;28.02;;;;;;;1.69;92.15;97122.57;1799574;79;21158;-80
2021/03/25 04:11:42;;;;;;;44.45;27.22;;;;;;;1.67;92.07;97120.17;1781707;79;21277;-80
2021/03/25 04:14:14;;;;;;;41.35;24.57;;;;;;;1.62;91.99;97118.70;1789252;79;21103;-80
2021/03/25 04:16:44;;;;;;;54.53;31.90;;;;;;;1.59;91.99;97120.43;1792327;79;21601;-80
2021/03/25 04:19:42;;;;;;;50.30;29.32;;;;;;;1.57;92.02;97122.45;1778703;79;21133;-80
2021/03/25 04:22:26;;;;;;;58.68;32.85;;;;;;;1.61;92.07;97124.94;1795957;79;21114;-80
2021/03/25 04:25:07;;;;;;;48.85;30.20;;;;;;;1.65;92.08;97122.20;1778399;79;21303;-80
2021/03/25 04:27:42;;;;;;;44.95;27.15;;;;;;;1.65;92.02;97131.34;1777523;79;21263;-79
2021/03/25 04:30:15;;;;;;;50.90;28.85;;;;;;;1.63;91.97;97124.22;1791853;79;21144;-79
2021/03/25 04:32:48;;;;;;;51.80;31.33;;;;;;;1.64;91.98;97131.05;1798135;79;21153;-79
2021/03/25 04:35:17;;;;;;;49.98;31.37;;;;;;;1.65;91.94;97130.03;1790250;79;21119;-79
2021/03/25 04:37:47;;;;;;;52.30;31.45;;;;;;;1.65;91.91;97131.34;1768149;80;21615;-79
2021/03/25 04:40:24;;;;;;;44.20;26.23;;;;;;;1.66;91.93;97126.41;1785017;80;21527;-79
2021/03/25 04:42:53;;;;;;;50.52;31.97;;;;;;;1.67;91.89;97128.52;1777260;79;21150;-79
2021/03/25 04:45:47;;;;;;;49.03;28.57;;;;;;;1.65;91.91;97127.42;1807082;78;21610;-79
2021/03/25 04:48:18;;;;;;;50.43;28.40;;;;;;;1.67;91.91;97125.40;1780784;79;21269;-80
2021/03/25 04:51:09;;;;;;;53.45;31.75;;;;;;;1.66;91.87;97127.72;1794299;78;21175;-80
2021/03/25 04:53:40;;;;;;;45.28;27.80;;;;;;;1.68;91.82;97125.69;1767439;79;21173;-80
2021/03/25 04:56:18;;;;;;;50.23;27.32;;;;;;;1.70;91.77;97127.62;1818245;78;21099;-80
2021/03/25 04:58:58;;;;;;;42.75;26.17;;;;;;;1.70;91.71;97128.92;1800434;78;21216;-80
2021/03/25 05:01:31;;;;;;;38.02;23.55;;;;;;;1.70;91.67;97130.23;1770703;79;21467;-79
2021/03/25 05:04:02;;;;;;;37.65;22.20;;;;;;;1.70;91.65;97129.43;1779971;79;21097;-80
2021/03/25 05:06:45;;;;;;;41.45;26.17;;;;;;;1.70;91.67;97132.05;1791927;79;21125;-80
2021/03/25 05:09:16;;;;;;;44.13;26.93;;;;;;;1.70;91.66;97132.05;1785213;80;21131;-80
2021/03/25 05:11:44;;;;;;;37.63;24.35;;;;;;;1.71;91.69;97135.75;1795422;78;21224;-80
2021/03/25 05:14:25;;;;;;;43.90;26.05;;;;;;;1.73;91.67;97135.03;1797842;78;21168;-80
2021/03/25 05:17:09;;;;;;;46.53;27.02;;;;;;;1.74;91.63;97139.25;1793789;79;21134;-80
2021/03/25 05:19:48;;;;;;;38.45;21.97;;;;;;;1.76;91.64;97139.84;1794385;79;21126;-80
2021/03/25 05:22:26;;;;;;;40.60;24.12;;;;;;;1.81;91.65;97146.23;1794821;79;21107;-80
2021/03/25 05:25:31;;;;;;;41.40;21.95;;;;;;;1.83;91.72;97148.97;1791928;79;21668;-80
2021/03/25 05:28:04;;;;;;;42.80;26.23;;;;;;;1.84;91.70;97145.34;1794365;78;21119;-80
2021/03/25 05:30:35;;;;;;;44.08;27.80;;;;;;;1.88;91.69;97145.20;1796233;79;21128;-80
2021/03/25 05:33:08;;;;;;;46.77;28.42;;;;;;;1.93;91.61;97141.45;1777727;79;21149;-80
2021/03/25 05:35:40;;;;;;;46.55;29.27;;;;;;;1.95;91.50;97148.58;1806310;78;21118;-80
2021/03/25 05:38:09;;;;;;;47.15;29.15;;;;;;;1.98;91.43;97149.99;1767621;79;21128;-80
2021/03/25 05:40:47;;;;;;;44.35;27.90;;;;;;;2.01;91.40;97146.95;1777238;79;21157;-80
2021/03/25 05:43:52;;;;;;;49.20;29.55;;;;;;;2.03;91.38;97143.62;1795884;78;21127;-80
2021/03/25 05:46:50;;;;;;;48.23;27.02;;;;;;;2.07;91.39;97139.05;1795667;79;21173;-79
2021/03/25 05:49:25;;;;;;;41.33;22.93;;;;;;;2.13;91.34;97143.96;1786876;79;21103;-80
2021/03/25 05:52:21;;;;;;;41.10;21.93;;;;;;;2.14;91.33;97148.18;1796345;79;21170;-80
2021/03/25 05:54:57;;;;;;;39.35;24.50;;;;;;;2.14;91.40;97140.84;1796095;78;21511;-80
2021/03/25 05:58:01;;;;;;;44.42;26.55;;;;;;;2.21;91.55;97143.69;1803634;79;21148;-80
2021/03/25 06:00:48;;;;;;;47.15;29.63;;;;;;;2.28;91.51;97147.08;1817620;78;21104;-80
2021/03/25 06:03:18;;;;;;;48.52;28.12;;;;;;;2.33;91.41;97147.23;1822282;78;21408;-80
2021/03/25 06:05:50;;;;;;;43.92;27.90;;;;;;;2.40;91.33;97156.36;1804359;79;21203;-80
2021/03/25 06:08:46;;;;;;;44.77;28.75;;;;;;;2.44;91.24;97152.80;1770156;79;21087;-80
2021/03/25 06:11:47;;;;;;;47.35;29.05;;;;;;;2.47;91.13;97153.67;1746288;80;21491;-80
2021/03/25 06:14:32;;;;;;;52.48;31.45;;;;;;;2.52;91.12;97148.08;1750765;80;21155;-80
2021/03/25 06:17:24;;;;;;;53.05;30.88;;;;;;;2.58;91.12;97152.98;1791382;78;21080;-80
2021/03/25 06:20:02;;;;;;;49.67;29.80;;;;;;;2.58;90.99;97151.17;1745771;80;21125;-80
2021/03/25 06:22:41;;;;;;;47.93;30.02;;;;;;;2.60;90.95;97153.58;1768089;80;21475;-80
2021/03/25 06:25:17;;;;;;;48.65;31.60;;;;;;;2.61;90.92;97151.25;1769423;80;21111;-80
2021/03/25 06:28:14;;;;;;;47.60;28.70;;;;;;;2.67;90.98;97158.23;1758426;80;21135;-80
2021/03/25 06:31:07;;;;;;;41.45;24.43;;;;;;;2.74;90.99;97155.06;1770224;79;21169;-80
2021/03/25 06:33:46;;;;;;;41.83;25.88;;;;;;;2.81;90.69;97154.48;1795197;79;21489;-80
2021/03/25 06:36:19;;;;;;;36.17;22.13;;;;;;;2.88;90.42;97153.13;1795490;79;21114;-80
2021/03/25 06:38:57;;;;;;;43.78;27.27;;;;;;;2.93;89.96;97158.00;1790504;80;21132;-80
2021/03/25 06:41:29;;;;;;;43.58;26.75;;;;;;;2.96;89.85;97156.28;1789773;79;21491;-79
2021/03/25 06:44:20;;;;;;;45.60;26.30;;;;;;;3.06;89.80;97156.28;1877697;76;22153;-79
2021/03/25 06:46:50;;;;;;;36.15;23.65;;;;;;;3.05;89.53;97155.98;1840933;77;21088;-79
2021/03/25 06:49:53;;;;;;;50.88;29.87;;;;;;;3.09;89.33;97161.08;1834912;77;21526;-79
2021/03/25 06:52:31;;;;;;;48.83;29.95;;;;;;;3.11;89.12;97160.38;1835870;77;21096;-80
2021/03/25 06:55:09;;;;;;;42.67;27.00;;;;;;;3.14;89.05;97161.25;1841531;76;21593;-80
2021/03/25 06:58:12;;;;;;;48.48;33.18;;;;;;;3.20;88.92;97159.86;1795327;79;28674;-81
2021/03/25 07:00:44;;;;;;;50.78;32.65;;;;;;;3.22;88.77;97162.25;1780878;80;21127;-79
2021/03/25 07:03:15;;;;;;;47.83;29.98;;;;;;;3.22;88.38;97168.30;1743114;81;21131;-79
2021/03/25 07:05:45;;;;;;;46.63;29.12;;;;;;;3.25;88.48;97170.50;1733650;81;21159;-79
2021/03/25 07:08:21;;;;;;;49.50;31.57;;;;;;;3.27;88.42;97168.46;1733707;81;21474;-79
2021/03/25 07:10:56;;;;;;;47.17;30.97;;;;;;;3.28;88.36;97172.68;1747878;81;21285;-79
2021/03/25 07:13:42;;;;;;;47.43;29.92;;;;;;;3.30;88.32;97176.39;1741986;81;21241;-80
2021/03/25 07:16:11;;;;;;;47.40;28.77;;;;;;;3.34;88.52;97168.38;1752755;81;21126;-80
2021/03/25 07:18:46;;;;;;;44.90;29.77;;;;;;;3.38;88.22;97181.84;1742195;81;21115;-80
2021/03/25 07:21:31;;;;;;;45.28;26.97;;;;;;;3.40;88.21;97174.08;1751631;81;21517;-80
2021/03/25 07:24:03;;;;;;;44.10;26.20;;;;;;;3.42;88.02;97173.34;1752910;81;21111;-80
2021/03/25 07:26:38;;;;;;;39.65;24.67;;;;;;;3.46;88.02;97177.12;1734402;81;21275;-80
2021/03/25 07:29:13;;;;;;;45.08;25.90;;;;;;;3.55;87.88;97176.33;1746444;81;21327;-80
2021/03/25 07:31:58;;;;;;;44.70;29.00;;;;;;;3.63;87.84;97180.45;1737602;81;21310;-80
2021/03/25 07:34:42;;;;;;;42.75;27.20;;;;;;;3.70;87.64;97175.44;1769761;81;21293;-80
2021/03/25 07:37:14;;;;;;;44.48;28.50;;;;;;;3.78;87.78;97186.92;1733982;81;21134;-80
2021/03/25 07:39:49;;;;;;;43.90;27.13;;;;;;;3.88;87.75;97183.78;1758921;81;21242;-80
2021/03/25 07:42:29;;;;;;;50.55;28.40;;;;;;;3.91;87.22;97183.34;1743130;81;21217;-80
2021/03/25 07:45:28;;;;;;;45.15;26.55;;;;;;;4.01;87.14;97174.95;1734859;81;21665;-79
2021/03/25 07:48:15;;;;;;;42.80;26.80;;;;;;;4.13;87.09;97177.91;1757233;81;21146;-80
2021/03/25 07:50:43;;;;;;;47.98;28.23;;;;;;;4.29;86.95;97175.67;1746976;81;21344;-81
2021/03/25 07:53:25;;;;;;;29.67;19.15;;;;;;;4.43;86.96;97176.56;1747707;81;21237;-80
2021/03/25 07:56:14;;;;;;;39.18;23.70;;;;;;;4.54;86.08;97173.69;1747135;81;21525;-80
2021/03/25 07:58:48;;;;;;;26.52;18.90;;;;;;;4.51;84.33;97172.83;1751065;81;21463;-80
2021/03/25 08:01:22;;;;;;;34.58;20.75;;;;;;;4.57;83.71;97181.62;1765196;81;21152;-80
2021/03/25 08:03:59;;;;;;;32.60;19.85;;;;;;;4.53;81.68;97182.59;1734370;81;21652;-80
2021/03/25 08:06:33;;;;;;;36.23;23.25;;;;;;;4.46;79.63;97178.73;1739293;81;21281;-80
2021/03/25 08:09:16;;;;;;;31.73;19.62;;;;;;;4.50;80.80;97183.02;1744155;81;21483;-80
2021/03/25 08:11:57;;;;;;;36.08;22.93;;;;;;;4.59;80.04;97186.13;1756185;81;21245;-80
2021/03/25 08:14:35;;;;;;;35.03;24.10;;;;;;;4.66;80.50;97186.84;1752574;81;21119;-80
2021/03/25 08:17:23;;;;;;;30.00;19.02;;;;;;;4.70;79.97;97190.09;1735494;81;21087;-80
2021/03/25 08:20:05;;;;;;;32.30;21.73;;;;;;;4.73;78.64;97181.75;1740124;81;21281;-80
2021/03/25 08:22:43;;;;;;;37.23;23.70;;;;;;;4.79;78.84;97188.46;1741851;81;21115;-81
2021/03/25 08:25:36;;;;;;;36.55;23.20;;;;;;;4.81;78.18;97186.41;1740536;81;21084;-81
2021/03/25 08:28:12;;;;;;;31.35;19.32;;;;;;;4.82;78.14;97184.86;1742951;81;21111;-80
2021/03/25 08:31:14;;;;;;;38.80;24.85;;;;;;;4.88;77.27;97183.14;1746647;81;21115;-80
2021/03/25 08:34:12;;;;;;;39.35;25.40;;;;;;;4.79;76.57;97187.15;1758061;81;21111;-80
2021/03/25 08:37:09;;;;;;;39.60;24.52;;;;;;;4.84;77.92;97184.62;1732122;81;21128;-81
2021/03/25 08:40:01;;;;;;;42.30;28.55;;;;;;;4.98;78.32;97186.02;1750189;81;21154;-81
2021/03/25 08:42:42;;;;;;;28.55;17.65;;;;;;;5.08;78.50;97190.19;1745785;81;21173;-81
2021/03/25 08:45:26;;;;;;;31.10;20.23;;;;;;;5.13;75.28;97186.35;1747439;81;21135;-81
2021/03/25 08:48:10;;;;;;;32.40;20.97;;;;;;;5.00;74.10;97176.87;1750447;81;21092;-80
2021/03/25 08:50:55;;;;;;;36.28;23.32;;;;;;;4.94;74.82;97179.63;1740215;81;21124;-80
2021/03/25 08:53:50;;;;;;;31.75;19.80;;;;;;;4.94;74.74;97180.42;1751465;81;21150;-80
2021/03/25 08:56:38;;;;;;;32.88;21.12;;;;;;;4.96;74.68;97185.45;1746806;81;21139;-81
2021/03/25 08:59:23;;;;;;;37.58;23.77;;;;;;;4.92;73.32;97182.97;1759355;81;21175;-81
2021/03/25 09:02:12;;;;;;;34.40;19.52;;;;;;;4.85;73.41;97182.28;1731138;81;21165;-80
2021/03/25 09:04:56;;;;;;;42.05;23.50;;;;;;;4.76;73.31;97187.06;1742339;81;21119;-81
2021/03/25 09:07:26;;;;;;;35.78;22.20;;;;;;;4.65;73.14;97180.80;1759341;81;21131;-80
2021/03/25 09:10:01;;;;;;;35.90;22.37;;;;;;;4.59;72.69;97189.55;1757125;81;21598;-80
2021/03/25 09:12:31;;;;;;;39.33;24.37;;;;;;;4.53;72.73;97187.05;1737675;81;21106;-81
2021/03/25 09:15:04;;;;;;;37.67;24.10;;;;;;;4.53;72.87;97187.84;1738363;81;21134;-81
2021/03/25 09:17:54;;;;;;;39.55;24.80;;;;;;;4.50;72.37;97185.64;1754488;81;21120;-80
2021/03/25 09:20:35;;;;;;;37.28;23.27;;;;;;;4.48;72.74;97181.94;1764030;81;21092;-80
2021/03/25 09:23:31;;;;;;;27.85;19.60;;;;;;;4.51;72.81;97181.22;1731294;81;21160;-80
2021/03/25 09:26:15;;;;;;;40.25;24.92;;;;;;;4.47;71.84;97175.59;1742050;81;21122;-81
2021/03/25 09:28:59;;;;;;;35.70;24.55;;;;;;;4.47;72.77;97173.77;1750385;81;21138;-81
2021/03/25 09:31:37;;;;;;;40.73;24.30;;;;;;;4.56;72.99;97178.70;1757515;81;21165;-80
2021/03/25 09:34:15;;;;;;;39.55;24.80;;;;;;;4.62;72.97;97179.91;1759509;81;21108;-80
2021/03/25 09:36:49;;;;;;;38.02;23.95;;;;;;;4.70;73.19;97180.90;1740016;81;21132;-80
2021/03/25 09:39:34;;;;;;;39.92;26.45;;;;;;;4.71;72.19;97178.56;1758772;81;21463;-81
2021/03/25 09:42:18;;;;;;;40.05;25.50;;;;;;;4.75;72.60;97178.38;1746652;81;21119;-81
2021/03/25 09:44:47;;;;;;;39.08;24.40;;;;;;;4.88;73.40;97175.27;1749075;81;21283;-81
2021/03/25 09:47:36;;;;;;;35.60;23.30;;;;;;;5.02;72.63;97171.38;1737767;81;21154;-81
2021/03/25 09:50:17;;;;;;;36.03;22.17;;;;;;;5.22;72.62;97173.67;1733407;81;21497;-80
2021/03/25 09:53:04;;;;;;;38.38;26.25;;;;;;;5.30;71.65;97168.84;1735339;81;21189;-80
2021/03/25 09:55:35;;;;;;;37.38;23.92;;;;;;;5.40;71.52;97172.22;1741588;81;21107;-80
2021/03/25 09:58:04;;;;;;;32.80;23.85;;;;;;;5.55;72.06;97169.91;1757481;81;21119;-80
2021/03/25 10:00:52;;;;;;;34.27;23.38;;;;;;;5.75;71.76;97160.80;1746396;81;21181;-80
2021/03/25 10:03:41;;;;;;;39.20;25.80;;;;;;;5.84;71.55;97164.16;1736878;81;21123;-81
2021/03/25 10:06:29;;;;;;;38.65;24.40;;;;;;;6.01;71.81;97168.70;1743449;81;21137;-80
2021/03/25 10:09:10;;;;;;;39.03;24.45;;;;;;;6.24;70.33;97159.40;1837990;77;22935;-80
2021/03/25 10:14:53;;;;;;;34.88;24.02;;;;;;;6.07;68.30;97155.94;1814502;78;23064;-80
2021/03/25 10:17:48;;;;;;;32.80;21.60;;;;;;;5.96;67.79;97157.58;1784216;80;21103;-81
2021/03/25 10:20:46;;;;;;;38.05;24.27;;;;;;;5.88;67.38;97156.59;1771826;80;21507;-81
2021/03/25 10:23:36;;;;;;;41.08;27.27;;;;;;;5.65;67.61;97162.23;1735236;81;21155;-81
2021/03/25 10:26:12;;;;;;;39.63;27.50;;;;;;;5.46;66.73;97163.91;1746549;81;21598;-81
2021/03/25 10:28:50;;;;;;;40.78;28.75;;;;;;;5.28;67.15;97165.66;1751983;81;21277;-81
2021/03/25 10:31:34;;;;;;;43.92;27.77;;;;;;;5.23;67.14;97166.07;1765357;81;21447;-81
2021/03/25 10:34:09;;;;;;;40.95;26.50;;;;;;;5.26;67.68;97167.72;1744385;81;21144;-80
2021/03/25 10:36:47;;;;;;;52.75;31.45;;;;;;;5.35;68.13;97168.18;1745165;81;21135;-80
2021/03/25 10:39:35;;;;;;;36.08;24.30;;;;;;;5.54;68.71;97166.19;1757839;81;21111;-80
2021/03/25 10:42:20;;;;;;;38.35;25.92;;;;;;;5.63;67.69;97159.52;1743677;81;21174;-81
2021/03/25 10:44:47;;;;;;;38.38;25.52;;;;;;;5.67;67.74;97161.98;1743807;81;21169;-81
2021/03/25 10:47:22;;;;;;;40.00;26.20;;;;;;;5.76;67.82;97159.25;1732991;81;21158;-81
2021/03/25 10:49:59;;;;;;;39.33;25.50;;;;;;;5.90;68.53;97155.87;1764398;81;21138;-81
2021/03/25 10:52:37;;;;;;;39.70;26.15;;;;;;;6.12;68.20;97154.70;1755674;81;21670;-81
2021/03/25 10:55:27;;;;;;;39.85;25.37;;;;;;;6.12;66.92;97150.23;1757351;81;21261;-80
2021/03/25 10:58:00;;;;;;;44.65;28.87;;;;;;;6.30;67.66;97150.55;1757548;81;21121;-81
2021/03/25 11:00:38;;;;;;;45.48;28.50;;;;;;;6.56;68.09;97146.50;1744751;81;21284;-81
2021/03/25 11:03:30;;;;;;;38.73;26.33;;;;;;;6.77;68.51;97145.80;1734912;81;21151;-80
2021/03/25 11:06:00;;;;;;;36.25;24.23;;;;;;;6.89;67.39;97145.69;1739583;81;21269;-81
2021/03/25 11:08:41;;;;;;;38.75;26.48;;;;;;;6.67;63.24;97143.52;1751438;81;21632;-80
2021/03/25 11:11:16;;;;;;;33.73;22.00;;;;;;;6.37;63.99;97140.67;1738858;81;21125;-80
2021/03/25 11:13:55;;;;;;;28.92;17.25;;;;;;;6.20;62.60;97135.91;1749337;81;21500;-80
2021/03/25 11:16:23;;;;;;;37.00;24.82;;;;;;;5.97;62.40;97140.75;1677281;84;21163;-80
2021/03/25 11:19:11;;;;;;;41.85;26.90;;;;;;;5.85;63.67;97142.08;1750846;81;21126;-80
2021/03/25 11:21:44;;;;;;;44.40;28.05;;;;;;;5.82;64.26;97139.12;1739869;81;21128;-80
2021/03/25 11:27:17;;;;;;;40.48;26.35;;;;;;;5.87;64.50;97137.38;1803919;79;22986;-80
2021/03/25 11:29:47;;;;;;;35.28;23.70;;;;;;;5.94;65.42;97146.48;1777013;80;21120;-81
2021/03/25 11:32:23;;;;;;;41.63;26.55;;;;;;;6.17;65.35;97137.67;1772673;80;21127;-80
2021/03/25 11:34:54;;;;;;;35.98;24.55;;;;;;;6.34;65.73;97135.09;1763756;80;21309;-80
2021/03/25 11:37:36;;;;;;;39.13;25.50;;;;;;;6.38;64.18;97134.37;1765701;80;21256;-80
2021/03/25 11:40:14;;;;;;;37.98;25.25;;;;;;;6.20;63.67;97131.96;1762108;81;21265;-80
2021/03/25 11:42:44;;;;;;;38.35;25.60;;;;;;;6.10;63.08;97131.77;1754992;81;21290;-80
2021/03/25 11:45:36;;;;;;;37.50;24.98;;;;;;;6.03;63.66;97129.78;1761760;81;21130;-80
2021/03/25 11:48:04;;;;;;;33.83;23.77;;;;;;;6.06;62.84;97125.39;1758652;80;21182;-80
2021/03/25 11:50:37;;;;;;;99.92;51.05;;;;;;;6.04;63.01;97133.50;1733924;80;21291;-81
2021/03/25 11:53:07;;;;;;;39.45;25.95;;;;;;;6.07;63.42;97129.10;1743043;81;21107;-80
2021/03/25 11:55:42;;;;;;;41.85;26.87;;;;;;;6.23;64.17;97130.96;1752969;81;21277;-80
2021/03/25 11:58:22;;;;;;;37.65;25.12;;;;;;;6.25;63.43;97130.20;1746577;81;21153;-81
2021/03/25 12:01:22;;;;;;;54.85;37.70;;;;;;;6.23;63.66;97129.64;1764389;80;21146;-81
2021/03/25 12:04:06;;;;;;;50.28;35.08;;;;;;;6.21;63.54;97129.61;1754056;81;21498;-80
2021/03/25 12:06:37;;;;;;;37.63;25.43;;;;;;;6.28;63.62;97125.48;1756158;81;21131;-80
2021/03/25 12:09:22;;;;;;;34.00;24.60;;;;;;;6.28;63.13;97124.97;1756587;81;21278;-80
2021/03/25 12:11:51;;;;;;;35.35;23.65;;;;;;;6.40;63.75;97119.13;1740109;81;21630;-80
2021/03/25 12:14:22;;;;;;;35.90;25.35;;;;;;;6.47;61.60;97118.43;1754738;80;21199;-80
2021/03/25 12:16:59;;;;;;;37.20;24.45;;;;;;;6.47;62.78;97115.80;1758450;81;21281;-80
2021/03/25 12:19:28;;;;;;;34.18;22.85;;;;;;;6.52;62.50;97117.22;1754276;81;21324;-80
2021/03/25 12:21:55;;;;;;;32.80;23.38;;;;;;;6.53;62.14;97111.42;1753162;81;21257;-80
2021/03/25 12:24:22;;;;;;;37.60;24.87;;;;;;;6.54;62.21;97108.55;1735309;81;21145;-80
2021/03/25 12:26:49;;;;;;;38.17;24.47;;;;;;;6.47;61.14;97106.58;1749285;80;21111;-80
2021/03/25 12:29:16;;;;;;;52.05;32.35;;;;;;;6.47;62.32;97108.41;1759235;80;21281;-80